sensor_id;sensor_type;location;lat;lon;timestamp;P1;durP1;ratioP1;P2;durP2;ratioP2
21095;SDS011;10706;49.036;12.112;2023-09-19T00:00:21;12.70;;;5.00;;
21095;SDS011;10706;49.036;12.112;2023-09-19T00:02:54;12.90;;;4.72;;
21095;SDS011;10706;49.036;12.112;2023-09-19T00:05:26;13.50;;;5.25;;
21095;SDS011;10706;49.036;12.112;2023-09-19T00:07:54;18.45;;;5.55;;
21095;SDS011;10706;49.036;12.112;2023-09-19T00:10:24;14.85;;;4.93;;
21095;SDS011;10706;49.036;12.112;2023-09-19T00:12:52;18.50;;;4.93;;
21095;SDS011;10706;49.036;12.112;2023-09-19T00:15:24;14.10;;;4.93;;
21095;SDS011;10706;49.036;12.112;2023-09-19T00:17:53;17.42;;;4.90;;
21095;SDS011;10706;49.036;12.112;2023-09-19T00:20:20;13.00;;;4.78;;
21095;SDS011;10706;49.036;12.112;2023-09-19T00:22:48;14.23;;;4.65;;
21095;SDS011;10706;49.036;12.112;2023-09-19T00:25:17;17.63;;;4.90;;
21095;SDS011;10706;49.036;12.112;2023-09-19T00:27:43;15.15;;;4.78;;
21095;SDS011;10706;49.036;12.112;2023-09-19T00:30:10;14.27;;;4.75;;
21095;SDS011;10706;49.036;12.112;2023-09-19T00:32:44;12.40;;;4.47;;
21095;SDS011;10706;49.036;12.112;2023-09-19T00:35:14;13.88;;;4.28;;
21095;SDS011;10706;49.036;12.112;2023-09-19T00:37:40;15.85;;;4.47;;
21095;SDS011;10706;49.036;12.112;2023-09-19T00:40:07;13.48;;;4.15;;
21095;SDS011;10706;49.036;12.112;2023-09-19T00:42:40;13.50;;;4.00;;
21095;SDS011;10706;49.036;12.112;2023-09-19T00:45:11;13.38;;;4.70;;
21095;SDS011;10706;49.036;12.112;2023-09-19T00:47:39;12.98;;;4.70;;
21095;SDS011;10706;49.036;12.112;2023-09-19T00:50:08;11.18;;;4.15;;
21095;SDS011;10706;49.036;12.112;2023-09-19T00:52:36;14.80;;;4.93;;
21095;SDS011;10706;49.036;12.112;2023-09-19T00:55:04;13.50;;;4.40;;
21095;SDS011;10706;49.036;12.112;2023-09-19T00:57:32;13.60;;;4.43;;
21095;SDS011;10706;49.036;12.112;2023-09-19T00:59:59;13.35;;;4.63;;
21095;SDS011;10706;49.036;12.112;2023-09-19T01:02:33;15.30;;;5.15;;
21095;SDS011;10706;49.036;12.112;2023-09-19T01:05:00;16.33;;;4.70;;
21095;SDS011;10706;49.036;12.112;2023-09-19T01:07:27;11.10;;;3.90;;
21095;SDS011;10706;49.036;12.112;2023-09-19T01:09:58;14.52;;;4.97;;
21095;SDS011;10706;49.036;12.112;2023-09-19T01:12:33;14.80;;;4.75;;
21095;SDS011;10706;49.036;12.112;2023-09-19T01:18:16;9.10;;;3.33;;
21095;SDS011;10706;49.036;12.112;2023-09-19T01:30:09;10.68;;;3.90;;
21095;SDS011;10706;49.036;12.112;2023-09-19T01:32:38;12.02;;;4.03;;
21095;SDS011;10706;49.036;12.112;2023-09-19T01:35:06;9.73;;;3.80;;
21095;SDS011;10706;49.036;12.112;2023-09-19T01:37:37;11.20;;;3.47;;
21095;SDS011;10706;49.036;12.112;2023-09-19T01:40:09;12.60;;;4.20;;
21095;SDS011;10706;49.036;12.112;2023-09-19T01:42:45;13.40;;;3.50;;
21095;SDS011;10706;49.036;12.112;2023-09-19T01:45:59;12.50;;;3.40;;
21095;SDS011;10706;49.036;12.112;2023-09-19T01:54:32;15.82;;;3.30;;
21095;SDS011;10706;49.036;12.112;2023-09-19T01:57:07;6.38;;;2.78;;
21095;SDS011;10706;49.036;12.112;2023-09-19T01:59:50;7.55;;;2.83;;
21095;SDS011;10706;49.036;12.112;2023-09-19T02:02:22;8.68;;;3.22;;
21095;SDS011;10706;49.036;12.112;2023-09-19T02:04:49;10.68;;;2.92;;
21095;SDS011;10706;49.036;12.112;2023-09-19T02:07:15;7.88;;;2.90;;
21095;SDS011;10706;49.036;12.112;2023-09-19T02:09:42;8.25;;;2.50;;
21095;SDS011;10706;49.036;12.112;2023-09-19T02:12:08;9.40;;;2.50;;
21095;SDS011;10706;49.036;12.112;2023-09-19T02:14:35;6.13;;;2.20;;
21095;SDS011;10706;49.036;12.112;2023-09-19T02:17:01;6.47;;;2.72;;
21095;SDS011;10706;49.036;12.112;2023-09-19T02:19:32;9.32;;;2.55;;
21095;SDS011;10706;49.036;12.112;2023-09-19T02:21:58;8.65;;;3.08;;
21095;SDS011;10706;49.036;12.112;2023-09-19T02:24:28;7.35;;;2.28;;
21095;SDS011;10706;49.036;12.112;2023-09-19T02:26:54;12.65;;;3.33;;
21095;SDS011;10706;49.036;12.112;2023-09-19T02:29:20;8.07;;;3.00;;
21095;SDS011;10706;49.036;12.112;2023-09-19T02:31:47;10.65;;;2.80;;
21095;SDS011;10706;49.036;12.112;2023-09-19T02:34:13;8.10;;;3.42;;
21095;SDS011;10706;49.036;12.112;2023-09-19T02:36:38;13.40;;;2.70;;
21095;SDS011;10706;49.036;12.112;2023-09-19T02:39:04;7.97;;;2.53;;
21095;SDS011;10706;49.036;12.112;2023-09-19T02:41:31;9.55;;;2.80;;
21095;SDS011;10706;49.036;12.112;2023-09-19T02:43:58;6.93;;;2.58;;
21095;SDS011;10706;49.036;12.112;2023-09-19T02:46:24;8.80;;;2.72;;
21095;SDS011;10706;49.036;12.112;2023-09-19T02:48:50;8.02;;;2.53;;
21095;SDS011;10706;49.036;12.112;2023-09-19T02:51:15;6.10;;;2.58;;
21095;SDS011;10706;49.036;12.112;2023-09-19T02:53:41;7.80;;;2.70;;
21095;SDS011;10706;49.036;12.112;2023-09-19T02:56:07;12.35;;;2.42;;
21095;SDS011;10706;49.036;12.112;2023-09-19T02:58:34;7.97;;;2.47;;
21095;SDS011;10706;49.036;12.112;2023-09-19T03:01:07;8.73;;;2.58;;
21095;SDS011;10706;49.036;12.112;2023-09-19T03:03:36;8.88;;;2.95;;
21095;SDS011;10706;49.036;12.112;2023-09-19T03:06:04;9.63;;;2.80;;
21095;SDS011;10706;49.036;12.112;2023-09-19T03:08:31;7.85;;;2.33;;
21095;SDS011;10706;49.036;12.112;2023-09-19T03:11:03;7.65;;;2.40;;
21095;SDS011;10706;49.036;12.112;2023-09-19T03:13:31;11.95;;;2.80;;
21095;SDS011;10706;49.036;12.112;2023-09-19T03:15:57;8.07;;;2.75;;
21095;SDS011;10706;49.036;12.112;2023-09-19T03:18:23;5.45;;;2.15;;
21095;SDS011;10706;49.036;12.112;2023-09-19T03:20:54;9.80;;;2.38;;
21095;SDS011;10706;49.036;12.112;2023-09-19T03:23:21;5.95;;;2.50;;
21095;SDS011;10706;49.036;12.112;2023-09-19T03:25:48;5.03;;;2.17;;
21095;SDS011;10706;49.036;12.112;2023-09-19T03:28:13;4.05;;;2.03;;
21095;SDS011;10706;49.036;12.112;2023-09-19T03:30:40;6.78;;;2.63;;
21095;SDS011;10706;49.036;12.112;2023-09-19T03:33:07;9.43;;;2.83;;
21095;SDS011;10706;49.036;12.112;2023-09-19T03:35:33;6.88;;;2.50;;
21095;SDS011;10706;49.036;12.112;2023-09-19T03:37:59;9.10;;;2.10;;
21095;SDS011;10706;49.036;12.112;2023-09-19T03:40:25;8.13;;;2.22;;
21095;SDS011;10706;49.036;12.112;2023-09-19T03:42:51;6.50;;;2.35;;
21095;SDS011;10706;49.036;12.112;2023-09-19T03:45:17;4.88;;;2.20;;
21095;SDS011;10706;49.036;12.112;2023-09-19T03:47:43;7.28;;;2.47;;
21095;SDS011;10706;49.036;12.112;2023-09-19T03:50:12;9.20;;;2.30;;
21095;SDS011;10706;49.036;12.112;2023-09-19T03:52:40;7.97;;;2.30;;
21095;SDS011;10706;49.036;12.112;2023-09-19T03:55:06;5.32;;;2.03;;
21095;SDS011;10706;49.036;12.112;2023-09-19T03:57:32;5.40;;;1.90;;
21095;SDS011;10706;49.036;12.112;2023-09-19T04:00:01;9.88;;;2.20;;
21095;SDS011;10706;49.036;12.112;2023-09-19T04:02:29;6.90;;;2.20;;
21095;SDS011;10706;49.036;12.112;2023-09-19T04:04:58;11.75;;;2.78;;
21095;SDS011;10706;49.036;12.112;2023-09-19T04:07:24;6.75;;;2.50;;
21095;SDS011;10706;49.036;12.112;2023-09-19T04:09:53;9.40;;;2.28;;
21095;SDS011;10706;49.036;12.112;2023-09-19T04:12:20;6.97;;;2.13;;
21095;SDS011;10706;49.036;12.112;2023-09-19T04:14:46;10.75;;;2.50;;
21095;SDS011;10706;49.036;12.112;2023-09-19T04:17:12;6.47;;;2.30;;
21095;SDS011;10706;49.036;12.112;2023-09-19T04:19:37;3.88;;;1.67;;
21095;SDS011;10706;49.036;12.112;2023-09-19T04:22:03;6.53;;;2.05;;
21095;SDS011;10706;49.036;12.112;2023-09-19T04:24:29;7.60;;;2.13;;
21095;SDS011;10706;49.036;12.112;2023-09-19T04:26:56;9.27;;;3.33;;
21095;SDS011;10706;49.036;12.112;2023-09-19T04:29:22;6.43;;;2.05;;
21095;SDS011;10706;49.036;12.112;2023-09-19T04:31:48;5.75;;;2.17;;
21095;SDS011;10706;49.036;12.112;2023-09-19T04:34:13;5.22;;;1.98;;
21095;SDS011;10706;49.036;12.112;2023-09-19T04:36:42;5.78;;;1.80;;
21095;SDS011;10706;49.036;12.112;2023-09-19T04:39:08;7.00;;;2.20;;
21095;SDS011;10706;49.036;12.112;2023-09-19T04:41:36;7.85;;;2.38;;
21095;SDS011;10706;49.036;12.112;2023-09-19T04:44:06;8.20;;;1.75;;
21095;SDS011;10706;49.036;12.112;2023-09-19T04:46:35;4.10;;;1.90;;
21095;SDS011;10706;49.036;12.112;2023-09-19T04:49:01;5.75;;;1.90;;
21095;SDS011;10706;49.036;12.112;2023-09-19T04:51:27;7.60;;;1.95;;
21095;SDS011;10706;49.036;12.112;2023-09-19T04:53:57;4.80;;;2.10;;
21095;SDS011;10706;49.036;12.112;2023-09-19T04:56:23;10.85;;;2.20;;
21095;SDS011;10706;49.036;12.112;2023-09-19T04:58:49;6.35;;;2.22;;
21095;SDS011;10706;49.036;12.112;2023-09-19T05:01:15;5.10;;;2.28;;
21095;SDS011;10706;49.036;12.112;2023-09-19T05:03:41;5.68;;;1.85;;
21095;SDS011;10706;49.036;12.112;2023-09-19T05:06:07;6.88;;;1.70;;
21095;SDS011;10706;49.036;12.112;2023-09-19T05:08:33;5.85;;;1.90;;
21095;SDS011;10706;49.036;12.112;2023-09-19T05:11:01;6.55;;;2.13;;
21095;SDS011;10706;49.036;12.112;2023-09-19T05:13:27;6.28;;;2.10;;
21095;SDS011;10706;49.036;12.112;2023-09-19T05:15:53;6.47;;;2.15;;
21095;SDS011;10706;49.036;12.112;2023-09-19T05:18:19;7.93;;;2.28;;
21095;SDS011;10706;49.036;12.112;2023-09-19T05:20:45;9.02;;;2.40;;
21095;SDS011;10706;49.036;12.112;2023-09-19T05:23:11;5.10;;;2.30;;
21095;SDS011;10706;49.036;12.112;2023-09-19T05:25:37;5.45;;;1.70;;
21095;SDS011;10706;49.036;12.112;2023-09-19T05:28:05;5.20;;;2.03;;
21095;SDS011;10706;49.036;12.112;2023-09-19T05:30:32;8.02;;;2.38;;
21095;SDS011;10706;49.036;12.112;2023-09-19T05:33:01;4.82;;;1.75;;
21095;SDS011;10706;49.036;12.112;2023-09-19T05:35:29;5.93;;;2.13;;
21095;SDS011;10706;49.036;12.112;2023-09-19T05:37:55;5.45;;;1.83;;
21095;SDS011;10706;49.036;12.112;2023-09-19T05:40:23;10.40;;;2.08;;
21095;SDS011;10706;49.036;12.112;2023-09-19T05:42:50;5.07;;;1.90;;
21095;SDS011;10706;49.036;12.112;2023-09-19T05:45:16;6.97;;;1.80;;
21095;SDS011;10706;49.036;12.112;2023-09-19T05:47:51;5.07;;;1.98;;
21095;SDS011;10706;49.036;12.112;2023-09-19T05:50:26;6.53;;;2.03;;
21095;SDS011;10706;49.036;12.112;2023-09-19T05:52:52;8.98;;;2.10;;
21095;SDS011;10706;49.036;12.112;2023-09-19T05:55:19;5.30;;;1.60;;
21095;SDS011;10706;49.036;12.112;2023-09-19T05:57:52;4.80;;;1.58;;
21095;SDS011;10706;49.036;12.112;2023-09-19T06:00:19;6.65;;;1.90;;
21095;SDS011;10706;49.036;12.112;2023-09-19T06:02:54;5.32;;;1.70;;
21095;SDS011;10706;49.036;12.112;2023-09-19T06:05:23;3.58;;;1.77;;
21095;SDS011;10706;49.036;12.112;2023-09-19T06:07:51;4.22;;;1.80;;
21095;SDS011;10706;49.036;12.112;2023-09-19T06:10:18;6.43;;;1.48;;
21095;SDS011;10706;49.036;12.112;2023-09-19T06:12:45;4.70;;;1.70;;
21095;SDS011;10706;49.036;12.112;2023-09-19T06:15:13;5.00;;;1.85;;
21095;SDS011;10706;49.036;12.112;2023-09-19T06:17:48;3.75;;;1.50;;
21095;SDS011;10706;49.036;12.112;2023-09-19T06:20:16;6.13;;;1.50;;
21095;SDS011;10706;49.036;12.112;2023-09-19T06:22:42;3.53;;;1.58;;
21095;SDS011;10706;49.036;12.112;2023-09-19T06:25:10;5.60;;;1.63;;
21095;SDS011;10706;49.036;12.112;2023-09-19T06:27:44;6.10;;;1.58;;
21095;SDS011;10706;49.036;12.112;2023-09-19T06:30:20;4.65;;;1.60;;
21095;SDS011;10706;49.036;12.112;2023-09-19T06:32:48;3.42;;;1.40;;
21095;SDS011;10706;49.036;12.112;2023-09-19T06:35:15;3.80;;;1.42;;
21095;SDS011;10706;49.036;12.112;2023-09-19T06:37:41;5.63;;;1.83;;
21095;SDS011;10706;49.036;12.112;2023-09-19T06:40:12;4.72;;;1.20;;
21095;SDS011;10706;49.036;12.112;2023-09-19T06:43:00;2.78;;;1.38;;
21095;SDS011;10706;49.036;12.112;2023-09-19T06:45:27;4.47;;;1.40;;
21095;SDS011;10706;49.036;12.112;2023-09-19T06:47:53;3.90;;;1.30;;
21095;SDS011;10706;49.036;12.112;2023-09-19T06:50:22;2.97;;;1.33;;
21095;SDS011;10706;49.036;12.112;2023-09-19T06:52:49;1.88;;;1.10;;
21095;SDS011;10706;49.036;12.112;2023-09-19T06:55:20;1.50;;;0.98;;
21095;SDS011;10706;49.036;12.112;2023-09-19T06:57:50;5.43;;;1.20;;
21095;SDS011;10706;49.036;12.112;2023-09-19T07:00:16;3.03;;;1.30;;
21095;SDS011;10706;49.036;12.112;2023-09-19T07:03:00;3.42;;;1.25;;
21095;SDS011;10706;49.036;12.112;2023-09-19T07:05:33;2.10;;;1.20;;
21095;SDS011;10706;49.036;12.112;2023-09-19T07:08:04;2.53;;;1.20;;
21095;SDS011;10706;49.036;12.112;2023-09-19T07:10:35;6.05;;;1.40;;
21095;SDS011;10706;49.036;12.112;2023-09-19T07:13:04;4.43;;;1.73;;
21095;SDS011;10706;49.036;12.112;2023-09-19T07:15:34;1.90;;;1.10;;
21095;SDS011;10706;49.036;12.112;2023-09-19T07:18:03;1.75;;;0.93;;
21095;SDS011;10706;49.036;12.112;2023-09-19T07:20:30;21.83;;;2.15;;
21095;SDS011;10706;49.036;12.112;2023-09-19T07:22:57;7.65;;;1.45;;
21095;SDS011;10706;49.036;12.112;2023-09-19T07:25:29;3.47;;;1.40;;
21095;SDS011;10706;49.036;12.112;2023-09-19T07:27:56;4.63;;;1.20;;
21095;SDS011;10706;49.036;12.112;2023-09-19T07:30:25;3.97;;;1.33;;
21095;SDS011;10706;49.036;12.112;2023-09-19T07:32:51;1.50;;;1.00;;
21095;SDS011;10706;49.036;12.112;2023-09-19T07:35:18;3.95;;;1.33;;
21095;SDS011;10706;49.036;12.112;2023-09-19T07:37:47;2.85;;;1.20;;
21095;SDS011;10706;49.036;12.112;2023-09-19T07:40:14;4.45;;;1.30;;
21095;SDS011;10706;49.036;12.112;2023-09-19T07:42:41;4.30;;;1.25;;
21095;SDS011;10706;49.036;12.112;2023-09-19T07:45:09;4.57;;;1.30;;
21095;SDS011;10706;49.036;12.112;2023-09-19T07:47:47;2.13;;;1.15;;
21095;SDS011;10706;49.036;12.112;2023-09-19T07:50:19;2.78;;;1.23;;
21095;SDS011;10706;49.036;12.112;2023-09-19T07:52:45;2.70;;;1.08;;
21095;SDS011;10706;49.036;12.112;2023-09-19T07:55:18;4.43;;;1.40;;
21095;SDS011;10706;49.036;12.112;2023-09-19T07:57:48;3.65;;;1.23;;
21095;SDS011;10706;49.036;12.112;2023-09-19T08:00:14;4.07;;;1.33;;
21095;SDS011;10706;49.036;12.112;2023-09-19T08:02:40;2.60;;;1.10;;
21095;SDS011;10706;49.036;12.112;2023-09-19T08:05:08;3.45;;;1.10;;
21095;SDS011;10706;49.036;12.112;2023-09-19T08:07:35;4.35;;;1.45;;
21095;SDS011;10706;49.036;12.112;2023-09-19T08:10:06;2.42;;;1.00;;
21095;SDS011;10706;49.036;12.112;2023-09-19T08:12:36;4.63;;;1.27;;
21095;SDS011;10706;49.036;12.112;2023-09-19T08:15:02;2.90;;;1.55;;
21095;SDS011;10706;49.036;12.112;2023-09-19T08:17:34;2.88;;;1.20;;
21095;SDS011;10706;49.036;12.112;2023-09-19T08:20:00;4.25;;;1.25;;
21095;SDS011;10706;49.036;12.112;2023-09-19T08:22:28;2.47;;;1.27;;
21095;SDS011;10706;49.036;12.112;2023-09-19T08:24:54;2.95;;;1.33;;
21095;SDS011;10706;49.036;12.112;2023-09-19T08:27:21;4.97;;;1.20;;
21095;SDS011;10706;49.036;12.112;2023-09-19T08:29:47;2.67;;;1.23;;
21095;SDS011;10706;49.036;12.112;2023-09-19T08:32:15;4.68;;;1.58;;
21095;SDS011;10706;49.036;12.112;2023-09-19T08:34:40;3.58;;;1.50;;
21095;SDS011;10706;49.036;12.112;2023-09-19T08:37:06;1.95;;;1.20;;
21095;SDS011;10706;49.036;12.112;2023-09-19T08:39:32;4.30;;;1.27;;
21095;SDS011;10706;49.036;12.112;2023-09-19T08:42:00;6.30;;;1.38;;
21095;SDS011;10706;49.036;12.112;2023-09-19T08:44:27;2.55;;;0.98;;
21095;SDS011;10706;49.036;12.112;2023-09-19T08:47:01;5.97;;;1.38;;
21095;SDS011;10706;49.036;12.112;2023-09-19T08:50:00;6.35;;;1.30;;
21095;SDS011;10706;49.036;12.112;2023-09-19T08:52:42;4.75;;;1.30;;
21095;SDS011;10706;49.036;12.112;2023-09-19T08:55:12;3.75;;;1.20;;
21095;SDS011;10706;49.036;12.112;2023-09-19T08:57:46;4.57;;;1.10;;
21095;SDS011;10706;49.036;12.112;2023-09-19T09:00:14;4.80;;;1.15;;
21095;SDS011;10706;49.036;12.112;2023-09-19T09:02:46;4.95;;;1.00;;
21095;SDS011;10706;49.036;12.112;2023-09-19T09:05:12;4.00;;;1.30;;
21095;SDS011;10706;49.036;12.112;2023-09-19T09:07:40;4.65;;;1.35;;
21095;SDS011;10706;49.036;12.112;2023-09-19T09:10:07;3.97;;;1.20;;
21095;SDS011;10706;49.036;12.112;2023-09-19T09:12:34;5.35;;;1.30;;
21095;SDS011;10706;49.036;12.112;2023-09-19T09:15:06;3.30;;;1.23;;
21095;SDS011;10706;49.036;12.112;2023-09-19T09:17:33;3.78;;;1.20;;
21095;SDS011;10706;49.036;12.112;2023-09-19T09:19:59;3.50;;;1.40;;
21095;SDS011;10706;49.036;12.112;2023-09-19T09:22:25;4.75;;;1.40;;
21095;SDS011;10706;49.036;12.112;2023-09-19T09:24:55;7.25;;;1.45;;
21095;SDS011;10706;49.036;12.112;2023-09-19T09:27:23;2.17;;;1.40;;
21095;SDS011;10706;49.036;12.112;2023-09-19T09:29:50;2.72;;;1.52;;
21095;SDS011;10706;49.036;12.112;2023-09-19T09:32:20;2.05;;;1.20;;
21095;SDS011;10706;49.036;12.112;2023-09-19T09:34:56;6.47;;;1.50;;
21095;SDS011;10706;49.036;12.112;2023-09-19T09:37:25;4.80;;;1.35;;
21095;SDS011;10706;49.036;12.112;2023-09-19T09:39:57;3.22;;;1.25;;
21095;SDS011;10706;49.036;12.112;2023-09-19T09:42:44;1.80;;;1.10;;
21095;SDS011;10706;49.036;12.112;2023-09-19T09:45:12;2.83;;;1.17;;
21095;SDS011;10706;49.036;12.112;2023-09-19T09:47:42;3.05;;;1.15;;
21095;SDS011;10706;49.036;12.112;2023-09-19T09:50:26;4.90;;;1.33;;
21095;SDS011;10706;49.036;12.112;2023-09-19T09:53:28;3.22;;;1.10;;
21095;SDS011;10706;49.036;12.112;2023-09-19T09:58:37;2.67;;;0.93;;
21095;SDS011;10706;49.036;12.112;2023-09-19T10:01:19;2.13;;;1.30;;
21095;SDS011;10706;49.036;12.112;2023-09-19T10:03:46;2.53;;;1.10;;
21095;SDS011;10706;49.036;12.112;2023-09-19T10:06:17;2.95;;;1.20;;
21095;SDS011;10706;49.036;12.112;2023-09-19T10:11:42;1.70;;;0.95;;
21095;SDS011;10706;49.036;12.112;2023-09-19T10:14:11;3.10;;;1.10;;
21095;SDS011;10706;49.036;12.112;2023-09-19T10:16:46;3.33;;;1.20;;
21095;SDS011;10706;49.036;12.112;2023-09-19T10:19:15;4.13;;;1.20;;
21095;SDS011;10706;49.036;12.112;2023-09-19T10:21:55;3.70;;;1.13;;
21095;SDS011;10706;49.036;12.112;2023-09-19T10:24:22;3.03;;;1.20;;
21095;SDS011;10706;49.036;12.112;2023-09-19T10:26:51;1.77;;;1.08;;
21095;SDS011;10706;49.036;12.112;2023-09-19T10:29:19;1.77;;;1.10;;
21095;SDS011;10706;49.036;12.112;2023-09-19T10:31:49;3.85;;;1.33;;
21095;SDS011;10706;49.036;12.112;2023-09-19T10:34:18;3.05;;;1.40;;
21095;SDS011;10706;49.036;12.112;2023-09-19T10:36:47;1.98;;;1.20;;
21095;SDS011;10706;49.036;12.112;2023-09-19T10:39:16;3.70;;;1.42;;
21095;SDS011;10706;49.036;12.112;2023-09-19T10:41:52;3.10;;;1.45;;
21095;SDS011;10706;49.036;12.112;2023-09-19T10:44:23;4.80;;;1.40;;
21095;SDS011;10706;49.036;12.112;2023-09-19T10:46:50;5.68;;;1.38;;
21095;SDS011;10706;49.036;12.112;2023-09-19T10:49:19;5.55;;;1.40;;
21095;SDS011;10706;49.036;12.112;2023-09-19T10:51:46;3.95;;;1.50;;
21095;SDS011;10706;49.036;12.112;2023-09-19T10:54:19;3.85;;;1.60;;
21095;SDS011;10706;49.036;12.112;2023-09-19T10:56:49;4.72;;;1.40;;
21095;SDS011;10706;49.036;12.112;2023-09-19T10:59:20;3.25;;;1.30;;
21095;SDS011;10706;49.036;12.112;2023-09-19T11:01:49;4.65;;;1.73;;
21095;SDS011;10706;49.036;12.112;2023-09-19T11:07:00;4.65;;;1.50;;
21095;SDS011;10706;49.036;12.112;2023-09-19T11:09:48;3.63;;;1.52;;
21095;SDS011;10706;49.036;12.112;2023-09-19T11:14:57;2.75;;;1.33;;
21095;SDS011;10706;49.036;12.112;2023-09-19T11:17:33;7.18;;;1.60;;
21095;SDS011;10706;49.036;12.112;2023-09-19T11:30:31;1.92;;;1.15;;
21095;SDS011;10706;49.036;12.112;2023-09-19T11:43:49;5.50;;;1.30;;
21095;SDS011;10706;49.036;12.112;2023-09-19T11:46:51;4.22;;;1.40;;
21095;SDS011;10706;49.036;12.112;2023-09-19T11:49:28;3.33;;;1.48;;
21095;SDS011;10706;49.036;12.112;2023-09-19T11:51:57;7.07;;;1.63;;
21095;SDS011;10706;49.036;12.112;2023-09-19T11:54:30;4.55;;;1.60;;
21095;SDS011;10706;49.036;12.112;2023-09-19T11:56:57;2.13;;;1.60;;
21095;SDS011;10706;49.036;12.112;2023-09-19T11:59:25;6.85;;;1.77;;
21095;SDS011;10706;49.036;12.112;2023-09-19T12:01:55;2.17;;;1.23;;
21095;SDS011;10706;49.036;12.112;2023-09-19T12:07:09;5.20;;;1.42;;
21095;SDS011;10706;49.036;12.112;2023-09-19T12:10:02;2.53;;;1.27;;
21095;SDS011;10706;49.036;12.112;2023-09-19T12:12:30;3.50;;;1.27;;
21095;SDS011;10706;49.036;12.112;2023-09-19T12:14:58;4.25;;;1.20;;
21095;SDS011;10706;49.036;12.112;2023-09-19T12:17:40;3.10;;;1.20;;
21095;SDS011;10706;49.036;12.112;2023-09-19T12:20:08;3.53;;;1.15;;
21095;SDS011;10706;49.036;12.112;2023-09-19T12:22:44;1.98;;;1.10;;
21095;SDS011;10706;49.036;12.112;2023-09-19T12:25:12;6.82;;;1.38;;
21095;SDS011;10706;49.036;12.112;2023-09-19T12:27:44;1.52;;;0.90;;
21095;SDS011;10706;49.036;12.112;2023-09-19T12:30:18;6.68;;;1.35;;
21095;SDS011;10706;49.036;12.112;2023-09-19T12:32:45;8.52;;;1.52;;
21095;SDS011;10706;49.036;12.112;2023-09-19T12:35:27;19.05;;;1.85;;
21095;SDS011;10706;49.036;12.112;2023-09-19T12:38:00;3.72;;;1.15;;
21095;SDS011;10706;49.036;12.112;2023-09-19T12:40:28;5.93;;;1.20;;
21095;SDS011;10706;49.036;12.112;2023-09-19T12:43:01;2.92;;;0.95;;
21095;SDS011;10706;49.036;12.112;2023-09-19T12:45:28;1.77;;;0.90;;
21095;SDS011;10706;49.036;12.112;2023-09-19T12:51:20;4.18;;;1.10;;
21095;SDS011;10706;49.036;12.112;2023-09-19T12:53:56;2.17;;;1.05;;
21095;SDS011;10706;49.036;12.112;2023-09-19T12:56:23;2.28;;;0.98;;
21095;SDS011;10706;49.036;12.112;2023-09-19T12:58:50;2.85;;;1.00;;
21095;SDS011;10706;49.036;12.112;2023-09-19T13:01:24;2.25;;;0.82;;
21095;SDS011;10706;49.036;12.112;2023-09-19T13:04:18;3.25;;;0.90;;
21095;SDS011;10706;49.036;12.112;2023-09-19T13:06:53;6.47;;;1.20;;
21095;SDS011;10706;49.036;12.112;2023-09-19T13:09:21;3.33;;;1.00;;
21095;SDS011;10706;49.036;12.112;2023-09-19T13:11:53;2.58;;;1.30;;
21095;SDS011;10706;49.036;12.112;2023-09-19T13:14:23;2.60;;;1.05;;
21095;SDS011;10706;49.036;12.112;2023-09-19T13:17:05;2.55;;;1.00;;
21095;SDS011;10706;49.036;12.112;2023-09-19T13:19:50;2.78;;;1.10;;
21095;SDS011;10706;49.036;12.112;2023-09-19T13:22:46;1.65;;;0.75;;
21095;SDS011;10706;49.036;12.112;2023-09-19T13:32:15;21.17;;;4.50;;
21095;SDS011;10706;49.036;12.112;2023-09-19T13:34:42;4.28;;;1.38;;
21095;SDS011;10706;49.036;12.112;2023-09-19T13:45:33;3.67;;;1.50;;
21095;SDS011;10706;49.036;12.112;2023-09-19T13:48:25;1.60;;;0.82;;
21095;SDS011;10706;49.036;12.112;2023-09-19T13:51:19;2.10;;;0.88;;
21095;SDS011;10706;49.036;12.112;2023-09-19T13:54:04;3.80;;;1.50;;
21095;SDS011;10706;49.036;12.112;2023-09-19T14:05:10;2.63;;;1.20;;
21095;SDS011;10706;49.036;12.112;2023-09-19T14:07:53;3.08;;;1.23;;
21095;SDS011;10706;49.036;12.112;2023-09-19T14:10:24;3.80;;;1.40;;
21095;SDS011;10706;49.036;12.112;2023-09-19T14:12:52;3.80;;;0.93;;
21095;SDS011;10706;49.036;12.112;2023-09-19T14:15:18;3.85;;;1.10;;
21095;SDS011;10706;49.036;12.112;2023-09-19T14:17:47;4.07;;;1.48;;
21095;SDS011;10706;49.036;12.112;2023-09-19T14:20:18;2.53;;;1.00;;
21095;SDS011;10706;49.036;12.112;2023-09-19T14:22:47;4.90;;;1.10;;
21095;SDS011;10706;49.036;12.112;2023-09-19T14:25:13;1.98;;;1.10;;
21095;SDS011;10706;49.036;12.112;2023-09-19T14:27:40;2.38;;;1.20;;
21095;SDS011;10706;49.036;12.112;2023-09-19T14:30:12;3.58;;;1.23;;
21095;SDS011;10706;49.036;12.112;2023-09-19T14:33:44;5.47;;;1.80;;
21095;SDS011;10706;49.036;12.112;2023-09-19T14:36:33;5.95;;;1.33;;
21095;SDS011;10706;49.036;12.112;2023-09-19T14:39:03;2.17;;;1.10;;
21095;SDS011;10706;49.036;12.112;2023-09-19T14:44:46;1.90;;;1.00;;
21095;SDS011;10706;49.036;12.112;2023-09-19T14:47:16;4.07;;;1.40;;
21095;SDS011;10706;49.036;12.112;2023-09-19T14:49:42;3.47;;;1.30;;
21095;SDS011;10706;49.036;12.112;2023-09-19T14:52:14;4.35;;;1.20;;
21095;SDS011;10706;49.036;12.112;2023-09-19T14:54:40;3.67;;;1.23;;
21095;SDS011;10706;49.036;12.112;2023-09-19T14:57:15;2.63;;;1.10;;
21095;SDS011;10706;49.036;12.112;2023-09-19T14:59:41;3.80;;;1.33;;
21095;SDS011;10706;49.036;12.112;2023-09-19T15:02:08;4.13;;;1.40;;
21095;SDS011;10706;49.036;12.112;2023-09-19T15:04:44;2.42;;;1.27;;
21095;SDS011;10706;49.036;12.112;2023-09-19T15:07:13;3.75;;;1.30;;
21095;SDS011;10706;49.036;12.112;2023-09-19T15:09:46;2.55;;;1.42;;
21095;SDS011;10706;49.036;12.112;2023-09-19T15:12:23;3.08;;;1.20;;
21095;SDS011;10706;49.036;12.112;2023-09-19T15:15:10;6.50;;;1.65;;
21095;SDS011;10706;49.036;12.112;2023-09-19T15:17:38;4.82;;;1.60;;
21095;SDS011;10706;49.036;12.112;2023-09-19T15:20:13;4.28;;;1.40;;
21095;SDS011;10706;49.036;12.112;2023-09-19T15:22:40;4.50;;;1.20;;
21095;SDS011;10706;49.036;12.112;2023-09-19T15:25:06;3.08;;;1.00;;
21095;SDS011;10706;49.036;12.112;2023-09-19T15:30:57;8.45;;;2.25;;
21095;SDS011;10706;49.036;12.112;2023-09-19T15:33:39;2.50;;;1.10;;
21095;SDS011;10706;49.036;12.112;2023-09-19T15:36:17;3.85;;;1.20;;
21095;SDS011;10706;49.036;12.112;2023-09-19T15:41:47;3.88;;;1.30;;
21095;SDS011;10706;49.036;12.112;2023-09-19T15:47:06;3.47;;;1.33;;
21095;SDS011;10706;49.036;12.112;2023-09-19T15:49:32;3.10;;;1.20;;
21095;SDS011;10706;49.036;12.112;2023-09-19T15:51:58;3.10;;;1.23;;
21095;SDS011;10706;49.036;12.112;2023-09-19T15:54:24;5.72;;;1.27;;
21095;SDS011;10706;49.036;12.112;2023-09-19T15:56:52;1.98;;;1.08;;
21095;SDS011;10706;49.036;12.112;2023-09-19T15:59:20;2.83;;;1.20;;
21095;SDS011;10706;49.036;12.112;2023-09-19T16:01:46;3.05;;;1.25;;
21095;SDS011;10706;49.036;12.112;2023-09-19T16:04:13;2.28;;;1.20;;
21095;SDS011;10706;49.036;12.112;2023-09-19T16:06:39;2.67;;;1.20;;
21095;SDS011;10706;49.036;12.112;2023-09-19T16:09:06;6.53;;;1.17;;
21095;SDS011;10706;49.036;12.112;2023-09-19T16:11:32;5.20;;;1.45;;
21095;SDS011;10706;49.036;12.112;2023-09-19T16:14:02;3.58;;;1.33;;
21095;SDS011;10706;49.036;12.112;2023-09-19T16:16:32;2.33;;;1.02;;
21095;SDS011;10706;49.036;12.112;2023-09-19T16:19:00;4.32;;;1.40;;
21095;SDS011;10706;49.036;12.112;2023-09-19T16:21:32;2.92;;;1.08;;
21095;SDS011;10706;49.036;12.112;2023-09-19T16:24:00;3.88;;;1.30;;